Time;durP1;ratioP1;P1;durP2;ratioP2;P2;SDS_P1;SDS_P2;PMS_P1;PMS_P2;Temp;Humidity;BMP_temperature;BMP_pressure;BME280_temperature;BME280_humidity;BME280_pressure;Samples;Min_cycle;Max_cycle;Signal;HPM_P1;HPM_P2
2020/12/19 00:01:46;;;;;;;23.73;21.27;;;5.50;99.90;;;;;;5013939;28;20458;-83
2020/12/19 00:04:13;;;;;;;21.83;20.03;;;5.50;99.90;;;;;;5013856;28;20547;-84
2020/12/19 00:06:42;;;;;;;25.13;22.03;;;5.50;99.90;;;;;;5013873;28;20488;-80
2020/12/19 00:09:09;;;;;;;22.27;20.27;;;5.60;99.90;;;;;;5013737;28;20451;-81
2020/12/19 00:11:36;;;;;;;24.27;21.93;;;5.50;99.90;;;;;;5015505;28;20962;-79
2020/12/19 00:14:02;;;;;;;22.87;20.90;;;5.40;99.90;;;;;;5019521;28;20818;-79
2020/12/19 00:16:29;;;;;;;25.40;22.13;;;5.30;99.90;;;;;;5024562;28;20627;-81
2020/12/19 00:18:56;;;;;;;23.93;21.53;;;5.30;99.90;;;;;;5028136;28;20492;-83
2020/12/19 00:21:22;;;;;;;23.83;21.73;;;5.30;99.90;;;;;;5015121;28;20520;-82
2020/12/19 00:23:49;;;;;;;25.80;23.40;;;5.30;99.90;;;;;;5013495;28;20506;-82
2020/12/19 00:26:16;;;;;;;26.17;23.67;;;5.30;99.90;;;;;;5013482;28;20459;-83
2020/12/19 00:28:42;;;;;;;25.70;23.33;;;5.30;99.90;;;;;;5013422;28;20477;-81
2020/12/19 00:31:08;;;;;;;24.53;22.20;;;5.30;99.90;;;;;;5013354;28;20471;-82
2020/12/19 00:33:34;;;;;;;25.80;23.30;;;5.20;99.90;;;;;;5013978;28;20445;-83
2020/12/19 00:36:00;;;;;;;30.40;23.03;;;5.30;99.90;;;;;;5013415;28;20450;-81
2020/12/19 00:38:27;;;;;;;26.37;23.77;;;5.20;99.90;;;;;;5013178;28;20482;-84
2020/12/19 00:40:53;;;;;;;25.97;23.43;;;5.20;99.90;;;;;;5013363;28;20463;-83
2020/12/19 00:43:20;;;;;;;27.10;24.70;;;5.20;99.90;;;;;;5013064;28;20511;-81
2020/12/19 00:45:46;;;;;;;25.03;22.63;;;5.30;99.90;;;;;;5013063;28;20458;-82
2020/12/19 00:48:12;;;;;;;24.23;22.13;;;5.30;99.90;;;;;;5012993;28;20476;-81
2020/12/19 00:50:38;;;;;;;22.77;20.87;;;5.20;99.90;;;;;;4993044;28;20546;-79
2020/12/19 00:53:04;;;;;;;23.53;21.60;;;5.20;99.90;;;;;;4993605;28;20449;-80
2020/12/19 00:55:31;;;;;;;22.70;20.53;;;5.10;99.90;;;;;;4993117;28;20949;-79
2020/12/19 00:57:57;;;;;;;24.17;22.00;;;5.10;99.90;;;;;;4993096;28;20460;-78
2020/12/19 01:00:24;;;;;;;27.07;24.37;;;5.10;99.90;;;;;;4993376;28;20454;-79
2020/12/19 01:02:50;;;;;;;25.30;23.00;;;5.10;99.90;;;;;;4993380;28;20458;-79
2020/12/19 01:05:16;;;;;;;24.07;21.73;;;5.10;99.90;;;;;;4992806;28;20487;-79
2020/12/19 01:07:42;;;;;;;24.60;22.40;;;5.10;99.90;;;;;;4992922;28;20458;-78
2020/12/19 01:10:10;;;;;;;23.83;21.90;;;5.00;99.90;;;;;;4991893;28;20504;-78
2020/12/19 01:12:37;;;;;;;24.30;22.00;;;5.00;99.90;;;;;;4993215;28;20466;-79
2020/12/19 01:15:05;;;;;;;26.07;23.43;;;5.00;99.90;;;;;;4992935;28;20940;-79
2020/12/19 01:17:32;;;;;;;25.67;23.23;;;5.10;99.90;;;;;;4992964;28;20479;-79
2020/12/19 01:19:58;;;;;;;26.03;23.83;;;5.10;99.90;;;;;;4992571;28;20463;-79
2020/12/19 01:22:25;;;;;;;24.53;22.30;;;5.10;99.90;;;;;;4992605;28;20443;-79
2020/12/19 01:24:51;;;;;;;25.33;22.67;;;5.10;99.90;;;;;;4992892;28;20505;-79
2020/12/19 01:27:17;;;;;;;25.57;23.07;;;5.10;99.90;;;;;;4992647;28;20451;-80
2020/12/19 01:29:43;;;;;;;22.63;20.63;;;5.10;99.90;;;;;;4992409;28;20453;-81
2020/12/19 01:32:09;;;;;;;26.33;23.83;;;5.10;99.90;;;;;;4992519;28;20465;-83
2020/12/19 01:34:36;;;;;;;26.97;24.50;;;5.20;99.90;;;;;;4992713;28;20441;-82
2020/12/19 01:37:02;;;;;;;25.10;22.53;;;5.20;99.90;;;;;;4992573;28;20949;-83
2020/12/19 01:39:29;;;;;;;23.83;21.73;;;5.10;99.90;;;;;;4992472;28;20466;-84
2020/12/19 01:41:55;;;;;;;24.17;22.10;;;5.10;99.90;;;;;;4992327;28;20478;-81
2020/12/19 01:44:21;;;;;;;25.17;22.90;;;5.10;99.90;;;;;;4992544;28;20498;-82
2020/12/19 01:46:56;;;;;;;25.03;22.60;;;5.00;99.90;;;;;;4992411;28;20461;-82
2020/12/19 01:49:23;;;;;;;24.23;21.93;;;4.90;99.90;;;;;;4992412;28;20470;-82
2020/12/19 01:51:52;;;;;;;24.20;21.87;;;4.80;99.90;;;;;;4992429;28;20520;-82
2020/12/19 01:54:20;;;;;;;25.20;22.73;;;4.80;99.90;;;;;;4992282;28;20451;-81
2020/12/19 01:56:52;;;;;;;23.20;21.07;;;4.80;99.90;;;;;;4992079;28;20451;-80
2020/12/19 01:59:19;;;;;;;23.77;21.63;;;4.70;99.90;;;;;;4992096;28;20459;-80
2020/12/19 02:01:47;;;;;;;24.13;21.63;;;4.80;99.90;;;;;;4991878;28;20507;-80
2020/12/19 02:04:14;;;;;;;24.33;22.10;;;4.80;99.90;;;;;;4991596;28;20491;-81
2020/12/19 02:06:41;;;;;;;24.70;22.63;;;4.70;99.90;;;;;;4991929;28;20880;-81
2020/12/19 02:09:09;;;;;;;27.37;24.67;;;4.70;99.90;;;;;;4991924;28;20455;-81
2020/12/19 02:11:45;;;;;;;23.83;21.50;;;4.80;99.90;;;;;;4991928;28;20458;-81
2020/12/19 02:14:12;;;;;;;25.80;23.50;;;4.70;99.90;;;;;;4991781;28;20742;-82
2020/12/19 02:16:39;;;;;;;25.93;23.57;;;4.70;99.90;;;;;;4991886;28;20465;-82
2020/12/19 02:19:12;;;;;;;26.13;23.57;;;4.70;99.90;;;;;;4991860;28;20448;-83
2020/12/19 02:21:42;;;;;;;24.87;22.37;;;4.70;99.90;;;;;;4991562;28;20631;-82
2020/12/19 02:24:10;;;;;;;24.87;22.73;;;4.60;99.90;;;;;;5001520;28;20499;-82
2020/12/19 02:26:36;;;;;;;26.37;23.70;;;4.60;99.90;;;;;;5008145;28;20474;-82
2020/12/19 02:29:03;;;;;;;25.43;23.23;;;4.50;99.90;;;;;;5001075;28;20785;-82
2020/12/19 02:31:29;;;;;;;23.30;21.20;;;4.50;99.90;;;;;;4992409;28;20466;-82
2020/12/19 02:33:55;;;;;;;26.00;23.60;;;4.40;99.90;;;;;;4993817;28;20506;-83
2020/12/19 02:36:21;;;;;;;23.50;21.60;;;4.40;99.90;;;;;;4992097;28;20451;-83
2020/12/19 02:38:47;;;;;;;26.23;23.33;;;4.40;99.90;;;;;;4991785;28;20447;-82
2020/12/19 02:41:14;;;;;;;27.17;24.63;;;4.30;99.90;;;;;;4991557;28;20455;-83
2020/12/19 02:43:40;;;;;;;25.53;23.23;;;4.30;99.90;;;;;;4991354;28;20846;-83
2020/12/19 02:46:06;;;;;;;26.27;23.53;;;4.30;99.90;;;;;;4991894;28;20450;-84
2020/12/19 02:48:33;;;;;;;22.57;20.50;;;4.30;99.90;;;;;;4991483;28;20481;-82
2020/12/19 02:50:59;;;;;;;23.30;21.10;;;4.40;99.90;;;;;;4991337;28;20478;-82
2020/12/19 02:53:25;;;;;;;25.07;22.93;;;4.30;99.90;;;;;;4991555;28;20467;-82
2020/12/19 02:55:51;;;;;;;23.80;21.70;;;4.30;99.90;;;;;;4991511;28;20902;-81
2020/12/19 02:58:18;;;;;;;27.00;23.90;;;4.20;99.90;;;;;;4991460;28;20453;-81
2020/12/19 03:00:44;;;;;;;27.30;25.03;;;4.20;99.90;;;;;;4991196;28;21002;-82
2020/12/19 03:03:10;;;;;;;24.70;22.30;;;4.20;99.90;;;;;;4991550;28;20450;-80
2020/12/19 03:05:36;;;;;;;27.93;25.20;;;4.20;99.90;;;;;;4994467;28;20493;-81
2020/12/19 03:08:03;;;;;;;26.40;24.10;;;4.20;99.90;;;;;;5003814;28;20456;-82
2020/12/19 03:10:29;;;;;;;27.97;25.33;;;4.10;99.90;;;;;;4996024;28;20461;-83
2020/12/19 03:12:55;;;;;;;24.70;22.50;;;4.10;99.90;;;;;;4990713;28;20454;-82
2020/12/19 03:15:22;;;;;;;22.07;19.97;;;4.10;99.90;;;;;;4991073;28;20872;-82
2020/12/19 03:17:48;;;;;;;25.90;23.03;;;4.20;99.90;;;;;;4990823;28;20450;-85
2020/12/19 03:20:14;;;;;;;25.47;23.33;;;4.10;99.90;;;;;;4990635;28;21020;-85
2020/12/19 03:22:40;;;;;;;24.00;21.87;;;4.10;99.90;;;;;;4990808;28;20458;-83
2020/12/19 03:25:07;;;;;;;24.67;22.63;;;4.10;99.90;;;;;;4991056;28;20494;-83
2020/12/19 03:27:33;;;;;;;23.73;21.70;;;4.00;99.90;;;;;;4990966;28;20464;-83
2020/12/19 03:29:59;;;;;;;25.97;23.37;;;4.00;99.90;;;;;;4990805;28;20454;-82
2020/12/19 03:32:26;;;;;;;24.20;22.23;;;3.90;99.90;;;;;;4990708;28;20458;-81
2020/12/19 03:34:52;;;;;;;24.40;21.90;;;3.90;99.90;;;;;;4993648;28;20826;-82
2020/12/19 03:37:18;;;;;;;26.47;23.63;;;3.90;99.90;;;;;;4995310;28;20959;-83
2020/12/19 03:39:44;;;;;;;28.03;25.10;;;3.90;99.90;;;;;;5003467;28;20445;-84
2020/12/19 03:42:10;;;;;;;26.80;24.10;;;3.90;99.90;;;;;;5005609;28;20465;-85
2020/12/19 03:44:37;;;;;;;24.70;22.60;;;3.80;99.90;;;;;;4997835;28;21030;-85
2020/12/19 03:47:03;;;;;;;25.63;23.43;;;3.90;99.90;;;;;;4995584;28;20458;-85
2020/12/19 03:49:30;;;;;;;28.50;25.53;;;3.80;99.90;;;;;;4995412;28;20475;-85
2020/12/19 03:51:56;;;;;;;25.87;23.23;;;3.80;99.90;;;;;;4995630;28;20541;-84
2020/12/19 03:54:22;;;;;;;25.80;23.20;;;3.80;99.90;;;;;;4985624;28;20485;-84
2020/12/19 03:56:48;;;;;;;23.07;20.70;;;3.80;99.90;;;;;;4981311;28;20830;-84
2020/12/19 03:59:15;;;;;;;26.23;23.67;;;3.70;99.90;;;;;;4975029;28;20816;-84
2020/12/19 04:01:41;;;;;;;24.17;21.70;;;3.70;99.90;;;;;;4975000;28;20455;-82
2020/12/19 04:04:07;;;;;;;27.87;25.10;;;3.70;99.90;;;;;;4975079;28;20531;-81
2020/12/19 04:06:34;;;;;;;26.80;24.27;;;3.70;99.90;;;;;;4974718;28;20454;-81
2020/12/19 04:09:00;;;;;;;24.33;22.20;;;3.70;99.90;;;;;;4974416;28;20949;-81
2020/12/19 04:11:26;;;;;;;25.10;22.77;;;3.70;99.90;;;;;;4974394;28;20465;-81
2020/12/19 04:13:53;;;;;;;27.63;24.80;;;3.70;99.90;;;;;;4974870;28;20500;-81
2020/12/19 04:16:19;;;;;;;27.87;25.37;;;3.70;99.90;;;;;;4974807;28;20452;-82
2020/12/19 04:18:45;;;;;;;28.53;25.67;;;3.70;99.90;;;;;;4982222;28;20466;-90
2020/12/19 04:21:11;;;;;;;28.93;26.37;;;3.70;99.90;;;;;;5000191;28;20459;-91
2020/12/19 04:23:38;;;;;;;25.77;23.27;;;3.70;99.90;;;;;;4988171;28;20460;-90
2020/12/19 04:26:07;;;;;;;26.20;22.20;;;3.70;99.90;;;;;;4994734;28;20455;-91
2020/12/19 04:28:33;;;;;;;25.53;21.80;;;3.60;99.90;;;;;;4988101;28;20450;-92
2020/12/19 04:30:59;;;;;;;23.87;21.93;;;3.60;99.90;;;;;;4997011;28;21094;-90
2020/12/19 04:33:25;;;;;;;21.40;19.47;;;3.60;99.90;;;;;;4985149;28;20444;-82
2020/12/19 04:35:52;;;;;;;25.70;23.10;;;3.60;99.90;;;;;;4995529;28;20455;-84
2020/12/19 04:38:18;;;;;;;23.70;21.43;;;3.60;99.90;;;;;;4982984;28;20843;-83
2020/12/19 04:40:45;;;;;;;24.17;22.20;;;3.60;99.90;;;;;;4975422;28;20581;-83
2020/12/19 04:43:15;;;;;;;25.90;23.60;;;3.50;99.90;;;;;;4974703;28;20953;-88
2020/12/19 04:45:42;;;;;;;25.27;22.93;;;3.50;99.90;;;;;;4974011;28;20584;-86
2020/12/19 04:48:08;;;;;;;23.23;20.97;;;3.50;99.90;;;;;;4975207;28;20452;-84
2020/12/19 04:50:38;;;;;;;26.83;24.33;;;3.50;99.90;;;;;;4975336;28;20878;-90
2020/12/19 04:53:13;;;;;;;23.90;21.50;;;3.50;99.90;;;;;;4993490;28;20459;-91
2020/12/19 04:55:40;;;;;;;24.47;22.33;;;3.50;99.90;;;;;;4994396;28;20459;-90
2020/12/19 04:58:08;;;;;;;24.70;21.90;;;3.50;99.90;;;;;;4996127;28;20439;-91
2020/12/19 05:00:34;;;;;;;24.17;22.07;;;3.50;99.90;;;;;;4999910;28;20451;-90
2020/12/19 05:03:00;;;;;;;23.70;21.33;;;3.50;99.90;;;;;;4996112;28;20451;-91
2020/12/19 05:05:27;;;;;;;19.77;18.07;;;3.50;99.90;;;;;;4994460;28;20511;-91
2020/12/19 05:07:53;;;;;;;23.80;21.53;;;3.40;99.90;;;;;;4996331;28;20463;-92
2020/12/19 05:10:19;;;;;;;23.30;21.10;;;3.40;99.90;;;;;;4981711;28;20450;-88
2020/12/19 05:12:52;;;;;;;26.00;23.40;;;3.40;99.90;;;;;;4974118;28;20514;-86
2020/12/19 05:15:19;;;;;;;23.93;21.70;;;3.40;99.90;;;;;;4974299;28;20463;-86
2020/12/19 05:17:51;;;;;;;21.90;19.93;;;3.40;99.90;;;;;;4973957;28;20454;-85
2020/12/19 05:20:18;;;;;;;23.20;21.23;;;3.40;99.90;;;;;;4973946;28;20858;-86
2020/12/19 05:22:47;;;;;;;24.17;21.70;;;3.40;99.90;;;;;;4973957;28;20459;-86
2020/12/19 05:25:15;;;;;;;22.93;20.80;;;3.40;99.90;;;;;;4973751;28;20771;-86
2020/12/19 05:27:43;;;;;;;23.90;21.47;;;3.30;99.90;;;;;;4980377;28;20925;-88
2020/12/19 05:30:09;;;;;;;24.57;22.50;;;3.20;99.90;;;;;;4974453;28;21019;-88
2020/12/19 05:32:43;;;;;;;22.77;20.53;;;3.20;99.90;;;;;;4974074;28;20458;-90
2020/12/19 05:35:09;;;;;;;20.70;18.93;;;3.10;99.90;;;;;;4974452;28;20454;-88
2020/12/19 05:37:35;;;;;;;23.60;21.30;;;3.20;99.90;;;;;;4974016;28;21033;-86
2020/12/19 05:40:08;;;;;;;23.30;20.97;;;3.20;99.90;;;;;;4973897;28;20456;-86
2020/12/19 05:42:35;;;;;;;25.20;22.80;;;3.10;99.90;;;;;;4973944;28;20812;-87
2020/12/19 05:45:02;;;;;;;26.40;24.03;;;3.10;99.90;;;;;;4973670;28;20999;-87
2020/12/19 05:47:28;;;;;;;23.53;21.27;;;3.10;99.90;;;;;;4973041;28;20466;-86
2020/12/19 05:49:55;;;;;;;23.33;21.43;;;3.10;99.90;;;;;;4973517;28;20533;-87
2020/12/19 05:52:23;;;;;;;19.73;17.63;;;3.00;99.90;;;;;;4976585;28;20463;-89
2020/12/19 05:54:56;;;;;;;22.23;19.83;;;3.00;99.90;;;;;;4988313;28;20455;-88
2020/12/19 05:57:25;;;;;;;27.40;24.80;;;3.00;99.90;;;;;;4997330;28;20462;-88
2020/12/19 05:59:53;;;;;;;22.60;20.10;;;3.00;99.90;;;;;;4983261;28;21000;-86
2020/12/19 06:02:20;;;;;;;27.17;24.47;;;3.00;99.90;;;;;;4974011;28;20516;-86
2020/12/19 06:04:47;;;;;;;25.47;21.43;;;3.00;99.90;;;;;;4972949;28;20514;-86
2020/12/19 06:07:15;;;;;;;22.30;20.57;;;3.10;99.90;;;;;;4972723;28;20550;-84
2020/12/19 06:09:42;;;;;;;25.97;23.37;;;3.00;99.90;;;;;;4972477;28;20486;-84
2020/12/19 06:12:13;;;;;;;27.07;24.37;;;3.10;99.90;;;;;;4972369;28;20463;-84
2020/12/19 06:14:41;;;;;;;24.27;22.07;;;3.00;99.90;;;;;;4972433;28;20447;-83
2020/12/19 06:17:13;;;;;;;25.70;23.47;;;3.10;99.90;;;;;;4972891;28;20462;-84
2020/12/19 06:19:41;;;;;;;22.03;19.80;;;3.10;99.90;;;;;;4972481;28;20464;-85
2020/12/19 06:22:07;;;;;;;24.60;21.73;;;3.00;99.90;;;;;;4971250;28;20471;-85
2020/12/19 06:24:39;;;;;;;22.17;20.17;;;3.00;99.90;;;;;;4972254;28;20908;-85
2020/12/19 06:27:09;;;;;;;22.00;19.70;;;3.00;99.90;;;;;;4972605;28;20452;-84
2020/12/19 06:29:36;;;;;;;22.20;20.40;;;2.90;99.90;;;;;;4972142;28;20558;-84
2020/12/19 06:32:03;;;;;;;21.33;19.23;;;2.90;99.90;;;;;;4971821;28;20454;-84
2020/12/19 06:34:29;;;;;;;24.23;21.83;;;2.90;99.90;;;;;;4971752;28;20455;-85
2020/12/19 06:36:56;;;;;;;23.20;21.13;;;2.90;99.90;;;;;;4971959;28;20957;-85
2020/12/19 06:39:22;;;;;;;23.87;20.57;;;3.00;99.90;;;;;;4972900;28;20455;-85
2020/12/19 06:41:52;;;;;;;28.73;25.70;;;3.00;99.90;;;;;;4982207;28;20455;-86
2020/12/19 06:44:23;;;;;;;21.67;19.07;;;3.00;99.90;;;;;;4993838;28;20460;-86
2020/12/19 06:46:49;;;;;;;26.27;23.50;;;3.00;99.90;;;;;;4981707;28;20442;-86
2020/12/19 06:49:34;;;;;;;24.00;21.50;;;3.10;99.90;;;;;;4973418;28;20542;-86
2020/12/19 06:52:04;;;;;;;25.10;22.53;;;3.00;99.90;;;;;;4971765;28;20849;-84
2020/12/19 06:54:32;;;;;;;24.40;21.90;;;3.00;99.90;;;;;;4971904;28;20456;-83
2020/12/19 06:57:00;;;;;;;26.20;23.70;;;3.10;99.90;;;;;;4972184;28;20456;-82
2020/12/19 06:59:28;;;;;;;20.37;18.57;;;3.00;99.90;;;;;;4972101;28;20455;-83
2020/12/19 07:02:13;;;;;;;21.73;20.13;;;3.10;99.90;;;;;;4971768;28;20462;-82
2020/12/19 07:04:40;;;;;;;23.70;21.70;;;3.10;99.90;;;;;;4972046;28;20577;-84
2020/12/19 07:07:09;;;;;;;22.87;20.53;;;3.10;99.90;;;;;;4972364;28;20462;-84
2020/12/19 07:09:35;;;;;;;24.13;21.87;;;3.10;99.90;;;;;;4971029;28;20463;-84
2020/12/19 07:12:03;;;;;;;24.17;22.07;;;3.00;99.90;;;;;;4972079;28;20456;-84
2020/12/19 07:14:40;;;;;;;22.47;20.37;;;3.10;99.90;;;;;;4971758;28;20457;-84
2020/12/19 07:17:17;;;;;;;21.90;19.90;;;3.00;99.90;;;;;;4972001;28;20468;-85
2020/12/19 07:19:44;;;;;;;21.93;19.77;;;3.00;99.90;;;;;;4973020;28;20880;-87
2020/12/19 07:22:11;;;;;;;23.07;21.00;;;2.90;99.90;;;;;;4972819;28;20452;-85
2020/12/19 07:27:49;;;;;;;21.77;19.67;;;2.90;99.90;;;;;;5066352;23;20481;-87
2020/12/19 07:30:16;;;;;;;22.13;20.27;;;2.80;99.90;;;;;;4949349;29;20536;-85
2020/12/19 07:32:44;;;;;;;23.23;20.77;;;2.80;99.90;;;;;;4951867;29;20468;-88
2020/12/19 07:35:10;;;;;;;23.60;21.13;;;2.80;99.90;;;;;;4957578;29;20454;-84
2020/12/19 07:37:37;;;;;;;24.07;21.83;;;2.80;99.90;;;;;;5003119;28;20455;-86
2020/12/19 07:40:05;;;;;;;22.40;20.40;;;2.80;99.90;;;;;;5010853;28;20506;-88
2020/12/19 07:42:31;;;;;;;22.87;20.93;;;2.80;99.90;;;;;;5011889;28;21059;-89
2020/12/19 07:44:58;;;;;;;24.27;22.40;;;2.90;99.90;;;;;;5015689;28;20836;-88
2020/12/19 07:47:25;;;;;;;23.07;21.30;;;3.10;99.90;;;;;;5012566;28;20464;-89
2020/12/19 07:49:51;;;;;;;20.43;18.80;;;3.30;99.90;;;;;;5035753;28;20457;-93
2020/12/19 07:52:20;;;;;;;23.43;21.27;;;3.50;99.90;;;;;;5041458;28;20449;-92
2020/12/19 08:05:08;;;;;;;19.50;17.90;;;4.30;99.90;;;;;;1424612;26;20999;-85
2020/12/19 08:07:35;;;;;;;19.77;18.10;;;4.30;99.90;;;;;;4991014;28;20443;-87
2020/12/19 08:10:03;;;;;;;19.70;18.17;;;4.40;99.90;;;;;;4990637;28;20956;-88
2020/12/19 08:12:30;;;;;;;18.60;17.27;;;4.40;99.90;;;;;;4991663;28;20590;-86
2020/12/19 08:14:58;;;;;;;20.13;18.30;;;4.50;99.90;;;;;;4990989;28;21005;-88
2020/12/19 08:17:26;;;;;;;21.73;19.83;;;4.60;99.90;;;;;;4991223;28;20946;-88
2020/12/19 08:19:56;;;;;;;19.53;18.03;;;4.70;99.90;;;;;;4992855;28;20458;-88
2020/12/19 08:22:23;;;;;;;20.77;19.17;;;4.80;99.90;;;;;;4995361;28;20462;-88
2020/12/19 08:24:51;;;;;;;21.30;19.60;;;5.10;99.90;;;;;;4994692;28;21002;-88
2020/12/19 08:27:35;;;;;;;21.27;19.37;;;5.30;99.90;;;;;;4994371;28;20855;-84
2020/12/19 08:30:06;;;;;;;18.80;17.17;;;5.50;99.90;;;;;;4994545;28;20528;-83
2020/12/19 08:32:32;;;;;;;19.07;17.67;;;5.30;99.90;;;;;;4994895;28;20449;-85
2020/12/19 08:34:59;;;;;;;21.27;19.20;;;5.30;99.90;;;;;;4995414;28;20459;-82
2020/12/19 08:37:26;;;;;;;19.90;18.40;;;5.30;99.90;;;;;;4994407;28;20453;-75
2020/12/19 08:40:12;;;;;;;19.60;17.77;;;5.40;99.90;;;;;;4994085;28;20455;-79
2020/12/19 08:42:39;;;;;;;20.17;18.77;;;5.50;99.90;;;;;;4994167;28;20798;-78
2020/12/19 08:45:22;;;;;;;20.10;18.70;;;5.60;99.90;;;;;;4997557;28;20539;-79
2020/12/19 08:47:51;;;;;;;17.87;16.53;;;5.80;99.90;;;;;;5002129;28;21019;-78
2020/12/19 08:50:25;;;;;;;19.93;18.37;;;6.20;99.90;;;;;;4999526;28;20513;-79
2020/12/19 08:53:10;;;;;;;18.40;17.10;;;6.20;99.90;;;;;;4996229;28;20459;-78
2020/12/19 08:55:37;;;;;;;18.80;17.40;;;6.30;99.90;;;;;;4984629;28;20968;-77
2020/12/19 08:58:03;;;;;;;16.77;15.57;;;6.50;99.90;;;;;;4985349;28;20467;-79
2020/12/19 09:00:39;;;;;;;16.27;15.20;;;6.50;99.90;;;;;;4973809;28;20454;-77
2020/12/19 09:03:08;;;;;;;17.07;15.77;;;6.60;99.90;;;;;;4987711;28;20447;-77
2020/12/19 09:05:37;;;;;;;18.03;16.67;;;6.60;99.90;;;;;;4992821;28;20494;-77
2020/12/19 09:08:04;;;;;;;19.77;18.27;;;6.70;99.90;;;;;;4992997;28;20948;-76
2020/12/19 09:10:32;;;;;;;17.20;15.83;;;6.70;99.90;;;;;;4987225;28;20450;-76
2020/12/19 09:13:12;;;;;;;16.23;14.93;;;6.80;99.90;;;;;;4973304;28;20482;-77
2020/12/19 09:15:39;;;;;;;16.07;14.93;;;6.70;99.90;;;;;;4973407;28;20968;-77
2020/12/19 09:18:13;;;;;;;16.90;15.80;;;6.90;99.90;;;;;;4973307;28;20461;-77
2020/12/19 09:20:39;;;;;;;16.57;15.37;;;7.00;99.90;;;;;;4973185;28;20467;-79
2020/12/19 09:23:06;;;;;;;17.57;16.37;;;7.20;99.90;;;;;;4973281;28;20582;-78
2020/12/19 09:25:33;;;;;;;17.87;16.40;;;7.20;99.90;;;;;;4973064;28;21031;-77
2020/12/19 09:27:59;;;;;;;19.00;17.77;;;7.40;99.90;;;;;;4981631;28;20454;-76
2020/12/19 09:30:26;;;;;;;18.37;16.90;;;7.50;99.90;;;;;;4992303;28;20459;-78
2020/12/19 09:32:52;;;;;;;17.17;15.87;;;7.60;99.90;;;;;;4991371;28;20459;-78
2020/12/19 09:35:18;;;;;;;17.70;16.30;;;7.70;99.90;;;;;;4992395;28;20984;-78
2020/12/19 09:37:44;;;;;;;17.20;16.10;;;7.70;99.90;;;;;;4992685;28;20822;-77
2020/12/19 09:40:11;;;;;;;17.33;16.10;;;7.90;99.90;;;;;;4992257;28;20817;-80
2020/12/19 09:42:38;;;;;;;17.47;16.27;;;8.10;99.90;;;;;;4992311;28;20462;-80
2020/12/19 09:45:04;;;;;;;17.07;15.60;;;8.20;99.90;;;;;;4992253;28;20487;-79
2020/12/19 09:47:30;;;;;;;17.30;16.00;;;8.20;99.90;;;;;;4992077;28;20455;-80
2020/12/19 09:49:56;;;;;;;17.33;15.97;;;8.20;99.90;;;;;;4991930;28;20474;-78
2020/12/19 09:52:22;;;;;;;16.53;15.37;;;8.30;99.90;;;;;;4992450;28;20458;-78
2020/12/19 09:54:48;;;;;;;18.60;17.10;;;8.50;99.90;;;;;;4984008;28;20444;-79
2020/12/19 09:57:15;;;;;;;16.60;15.43;;;8.60;99.90;;;;;;4972478;28;20464;-79
2020/12/19 09:59:43;;;;;;;16.97;15.77;;;8.60;99.90;;;;;;4972682;28;20451;-79
2020/12/19 10:02:09;;;;;;;18.20;16.80;;;8.30;99.90;;;;;;4972821;28;20451;-79
2020/12/19 10:04:35;;;;;;;17.70;16.20;;;8.40;99.90;;;;;;4972414;28;20483;-79
2020/12/19 10:07:01;;;;;;;16.90;15.80;;;8.30;99.90;;;;;;4972241;28;20994;-78
2020/12/19 10:09:27;;;;;;;17.40;16.00;;;8.50;99.90;;;;;;4972462;28;21168;-79
2020/12/19 10:11:55;;;;;;;17.67;16.47;;;8.60;99.90;;;;;;4972623;28;20460;-78
2020/12/19 10:14:22;;;;;;;17.60;16.50;;;8.80;99.90;;;;;;4972529;28;20555;-79
2020/12/19 10:16:48;;;;;;;18.03;16.80;;;9.00;99.90;;;;;;4972283;28;20491;-80
2020/12/19 10:19:14;;;;;;;17.90;16.63;;;9.20;99.90;;;;;;4972063;28;20463;-79
2020/12/19 10:21:41;;;;;;;14.30;13.40;;;9.30;99.90;;;;;;4971953;28;20456;-78
2020/12/19 10:24:07;;;;;;;16.10;15.10;;;9.50;99.90;;;;;;4972485;28;20817;-79
2020/12/19 10:26:33;;;;;;;17.63;16.50;;;9.30;99.90;;;;;;4971864;28;20503;-79
2020/12/19 10:28:59;;;;;;;18.43;17.00;;;9.40;99.90;;;;;;4971832;28;20759;-79
2020/12/19 10:31:27;;;;;;;18.03;16.83;;;9.30;99.90;;;;;;4971598;28;20451;-79
2020/12/19 10:33:53;;;;;;;18.23;17.00;;;9.30;99.90;;;;;;4974045;28;20539;-79
2020/12/19 10:36:23;;;;;;;17.13;16.03;;;9.40;99.90;;;;;;4988191;28;20861;-79
2020/12/19 10:38:49;;;;;;;17.27;16.10;;;9.50;99.90;;;;;;4974275;28;20803;-79
2020/12/19 10:41:15;;;;;;;17.97;16.67;;;9.50;99.90;;;;;;4971372;28;20510;-78
2020/12/19 10:43:41;;;;;;;16.67;15.57;;;9.60;99.90;;;;;;4971231;28;20467;-78
2020/12/19 10:46:08;;;;;;;15.73;14.73;;;9.90;99.90;;;;;;4971611;28;20499;-79
2020/12/19 10:48:37;;;;;;;17.83;16.40;;;9.90;99.90;;;;;;4971408;28;20501;-79
2020/12/19 10:51:04;;;;;;;17.87;16.33;;;9.80;99.90;;;;;;4971490;28;20579;-79
2020/12/19 10:53:30;;;;;;;16.57;15.27;;;9.80;99.90;;;;;;4971243;28;20460;-80
2020/12/19 10:55:56;;;;;;;15.53;14.50;;;9.90;99.90;;;;;;4971931;28;20454;-79
2020/12/19 10:58:22;;;;;;;17.33;16.03;;;10.00;99.90;;;;;;4971388;28;20459;-79
2020/12/19 11:00:48;;;;;;;15.87;14.87;;;10.00;99.90;;;;;;4971061;28;20467;-78
2020/12/19 11:03:14;;;;;;;16.00;15.00;;;10.10;99.90;;;;;;4970662;28;20448;-79
2020/12/19 11:05:41;;;;;;;17.93;16.80;;;10.20;99.90;;;;;;4972829;28;20550;-78
2020/12/19 11:08:08;;;;;;;17.60;16.40;;;10.30;99.90;;;;;;4972100;28;20947;-78
2020/12/19 11:10:34;;;;;;;17.10;16.10;;;10.50;99.90;;;;;;4971298;28;20461;-77
2020/12/19 11:13:03;;;;;;;17.03;15.70;;;10.60;99.90;;;;;;4971523;28;20455;-81
2020/12/19 11:15:29;;;;;;;18.67;17.27;;;10.50;99.90;;;;;;4971477;28;20565;-79
2020/12/19 11:17:56;;;;;;;16.40;15.27;;;10.90;99.90;;;;;;4968131;28;20471;-78
2020/12/19 11:20:22;;;;;;;16.10;15.13;;;10.90;99.90;;;;;;4985382;28;20474;-77
2020/12/19 11:22:49;;;;;;;17.40;16.30;;;11.00;99.90;;;;;;5006216;28;20446;-79
2020/12/19 11:25:16;;;;;;;16.80;15.60;;;11.20;99.90;;;;;;4993466;28;20490;-78
2020/12/19 11:27:42;;;;;;;15.57;14.53;;;11.40;99.90;;;;;;4993903;28;20968;-78
2020/12/19 11:30:08;;;;;;;16.77;15.70;;;11.40;99.90;;;;;;5011393;28;20461;-78
2020/12/19 11:32:35;;;;;;;16.53;15.47;;;11.60;99.90;;;;;;5011288;28;20450;-79
2020/12/19 11:35:02;;;;;;;17.03;15.90;;;11.90;99.90;;;;;;5012721;28;20473;-79
2020/12/19 11:37:28;;;;;;;17.57;16.47;;;11.70;99.90;;;;;;5007700;28;20488;-78
2020/12/19 11:39:55;;;;;;;15.60;14.70;;;12.00;99.90;;;;;;4996438;28;20443;-77
2020/12/19 11:42:27;;;;;;;16.17;15.27;;;12.10;99.90;;;;;;4991826;28;20483;-78
2020/12/19 11:44:53;;;;;;;16.33;15.30;;;12.00;99.90;;;;;;4988182;28;20501;-78
2020/12/19 11:47:20;;;;;;;16.33;15.40;;;12.50;99.90;;;;;;4991021;28;20459;-80
2020/12/19 11:49:46;;;;;;;15.87;14.87;;;12.60;99.60;;;;;;4989406;28;20479;-86
2020/12/19 11:52:12;;;;;;;16.53;15.53;;;13.00;98.90;;;;;;4991022;28;20901;-82
2020/12/19 11:54:39;;;;;;;17.50;16.47;;;13.20;98.30;;;;;;4992116;28;20474;-81
2020/12/19 11:57:07;;;;;;;16.60;15.60;;;13.40;98.30;;;;;;5002714;28;20520;-81
2020/12/19 11:59:34;;;;;;;16.77;15.73;;;13.90;97.50;;;;;;4983947;28;20945;-82
2020/12/19 12:02:00;;;;;;;16.90;15.90;;;13.90;97.60;;;;;;4994077;28;20897;-81
2020/12/19 12:04:26;;;;;;;19.17;18.00;;;13.50;97.70;;;;;;5011483;28;20450;-82
2020/12/19 12:06:52;;;;;;;17.53;16.43;;;13.80;97.50;;;;;;5013833;28;21014;-85
2020/12/19 12:09:18;;;;;;;17.47;16.33;;;13.70;97.60;;;;;;5013853;28;20823;-83
2020/12/19 12:11:44;;;;;;;18.93;17.70;;;13.20;98.20;;;;;;5006024;28;20959;-83
2020/12/19 12:14:12;;;;;;;16.97;15.90;;;13.50;97.90;;;;;;4993993;28;20854;-85
2020/12/19 12:16:38;;;;;;;17.37;16.20;;;13.40;98.10;;;;;;4994089;28;20443;-84
2020/12/19 12:19:04;;;;;;;17.83;16.63;;;13.40;98.50;;;;;;4993990;28;20450;-86
2020/12/19 12:21:35;;;;;;;18.97;17.47;;;13.90;97.50;;;;;;4994150;28;20455;-86
2020/12/19 12:24:01;;;;;;;17.70;16.50;;;14.00;97.10;;;;;;4994026;28;20455;-85
2020/12/19 12:26:28;;;;;;;17.90;16.80;;;14.60;96.70;;;;;;4993881;28;20909;-83
2020/12/19 12:28:55;;;;;;;18.63;17.63;;;14.70;96.20;;;;;;5001879;28;20446;-83
2020/12/19 12:31:23;;;;;;;17.70;16.60;;;14.70;95.90;;;;;;5013774;28;20868;-84
2020/12/19 12:33:50;;;;;;;18.03;16.93;;;14.80;95.90;;;;;;5013322;28;20500;-84
2020/12/19 12:36:16;;;;;;;17.63;16.33;;;14.70;95.90;;;;;;5013193;28;20454;-84
2020/12/19 12:38:43;;;;;;;18.60;17.50;;;14.00;96.50;;;;;;5013181;28;20453;-84
2020/12/19 12:41:09;;;;;;;18.33;17.13;;;13.60;97.50;;;;;;5013046;28;20477;-86
2020/12/19 12:43:35;;;;;;;17.57;16.57;;;13.40;97.80;;;;;;5013395;28;20460;-85
2020/12/19 12:46:01;;;;;;;17.90;16.80;;;13.10;98.40;;;;;;5013032;28;20489;-84
2020/12/19 12:48:28;;;;;;;17.00;15.80;;;12.60;99.30;;;;;;5013050;28;20944;-84
2020/12/19 12:50:54;;;;;;;16.53;15.47;;;12.40;99.90;;;;;;5013052;28;20445;-83